Peotone, IL (60468)

2:05 PM CDT on May 23, 2017 (GMT -0500)
The Sommerfelds | | Change Station

Elev 715 ft 41.33 °N, 87.79 °W | Updated 4 seconds ago

Overcast
Overcast
65.7 °F
Feels Like 65.7 °F
N
3.4
Wind Variable Wind from East
Gusts 5.8 mph

Today
High -- | Low -- °F
--% Chance of Precip.
Yesterday
High -- | Low -- °F
Precip. -- in
Pressure 29.75 in
Visibility 10.0 miles
Clouds Overcast 9000 ft
Dew Point 57 °F
Humidity 73%
Rainfall 0.00 in
Snow Depth Not available.
5:25 AM 8:10 PM
Waning Crescent, 6% visible
METAR KIKK 231855Z AUTO 00000KT 10SM OVC090 18/13 A2975 RMK AO2 T01840129
Pressure 29.75 in
Visibility 10.0 miles
Clouds Overcast 9000 ft
Dew Point 57 °F
Humidity 73%
Rainfall 0.00 in
Snow Depth Not available.
5:25 AM 8:10 PM
Waning Crescent, 6% visible
METAR KIKK 231855Z AUTO 00000KT 10SM OVC090 18/13 A2975 RMK AO2 T01840129

Get Severe Weather Alerts

Thanks for signing up!

Be on the lookout for a verification email in your inbox.

You'll start receiving the daily forecast at 6 AM.

×

10-Day Weather Forecast

Almanac

Astronomy

May. 23, 2017 Rise Set
Actual Time
Civil Twilight
Nautical Twilight
Astronomical Twilight
Moon
Length of Visible Light
Length of Day
Tomorrow will be .
, % of the Moon is Illuminated

Today's Extremes

State Highs State Lows

Community

WunderPhotos

Category 6

Welcome to Category 6. This is the collective home for Weather Underground's featured writeups by Dr. Jeff Masters (right), Bob Henson (left), Chris Burt, and other regular contributors.

Nearby

Air Quality

  Air Quality AQ Index Pollutant
Not available.

Snow Depth

Station Depth Elevation

Earthquake Activity

City Distance Mag. Time & Date
Minimum magnitude displayed is 2.5.

Coastal Water Temperatures

Place Temperature

Stations

Nearby Weather Stations

Station Location Temp. Windchill Dew Point Humidity Wind Precip. Elev Updated Type
                   

Watches & Warnings

There are currently no watches in effect.